Terminal Aerodrome Forecast
Issued by NWS

Home | Current Version | Previous Version | Text Only | Print | Product List | Glossary On
Versions: 1 2 3 4 5 6 7 8 9 10 11 12 13 14 15 16 17 18 19 20
000
FTUS43 KDTX 272102 AAB
TAFDET
TAF AMD
KDET 272102Z 2721/2818 24013G20KT P6SM SCT040 BKN100 OVC200
     FM280100 29007KT P6SM SCT040
     FM280800 VRB04KT 5SM BR SCT030
     FM281400 16008KT P6SM BKN040=

USA.gov is the U.S. government's official web portal to all federal, state and local government web resources and services.